M V Stampede — V70B4 — position and weather

sailwx.info

Track history (hours):
 
Tides and Currents Weather Stations Pressure Air Temp Water Temp Dewpoint Dewpoint Depression Visibility Wind Speed Wind Dir Waves Ship Positions

M V Stampede

Last reported at 2017-Nov-08 22:14 UTC. Time now 2017-Nov-18 19:44 UTC.
Position N 32°42' W 117°14'.
Warning: this ship's position is 9 days out of date.

Length 35 m; draft 3.2 m.

Type: Pleasure craft. MMSI: 538070463.

Date/timePositionNaut miles runAvg speedWind from/ knotsBaromVisibWave heightAir tempDewpointWater temp
2017-Nov-08 22:14N 32°42' W 117°14'  
2017-Nov-03 03:54N 32°46' W 117°19'410.3
2017-Nov-03 03:29N 32°50' W 117°20'510.7
2017-Nov-03 03:01N 32°55' W 117°21'510.8
2017-Nov-03 02:30N 33°00' W 117°23'510.7
2017-Nov-03 02:00N 33°05' W 117°26'510.4
2017-Nov-03 01:30N 33°10' W 117°29'510.6
2017-Nov-03 01:00N 33°14' W 117°33'510.7
2017-Nov-03 00:30N 33°18' W 117°37'510.7
2017-Nov-03 00:00N 33°22' W 117°42'4310.1
2017-Nov-02 19:48N 33°44' W 118°25'310.6
2017-Nov-02 19:30N 33°46' W 118°27'1110.0
2017-Nov-02 18:22N 33°58' W 118°28'0 0.0
2017-Oct-31 20:59N 33°58' W 118°28'0 0.0
2017-Oct-31 17:40N 33°58' W 118°28'  
Track history (hours):
 
Tides and Currents Weather Stations Pressure Air Temp Water Temp Dewpoint Dewpoint Depression Visibility Wind Speed Wind Dir Waves Ship Positions

M V Stampede

Last reported at 2017-Nov-08 22:14 UTC. Time now 2017-Nov-18 19:44 UTC.
Position N 32°42' W 117°14'.
Warning: this ship's position is 9 days out of date.

Length 35 m; draft 3.2 m.

Type: Pleasure craft. MMSI: 538070463.

Date/timePositionNaut miles runAvg speedWind from/ knotsBaromVisibWave heightAir tempDewpointWater temp
2017-Nov-08 22:14N 32°42' W 117°14'  
2017-Nov-03 03:54N 32°46' W 117°19'410.3
2017-Nov-03 03:29N 32°50' W 117°20'510.7
2017-Nov-03 03:01N 32°55' W 117°21'510.8
2017-Nov-03 02:30N 33°00' W 117°23'510.7
2017-Nov-03 02:00N 33°05' W 117°26'510.4
2017-Nov-03 01:30N 33°10' W 117°29'510.6
2017-Nov-03 01:00N 33°14' W 117°33'510.7
2017-Nov-03 00:30N 33°18' W 117°37'510.7
2017-Nov-03 00:00N 33°22' W 117°42'4310.1
2017-Nov-02 19:48N 33°44' W 118°25'310.6
2017-Nov-02 19:30N 33°46' W 118°27'1110.0
2017-Nov-02 18:22N 33°58' W 118°28'0 0.0
2017-Oct-31 20:59N 33°58' W 118°28'0 0.0
2017-Oct-31 17:40N 33°58' W 118°28'  

Dump ship's entire track history